Time;durP1;ratioP1;P1;durP2;ratioP2;P2;SDS_P1;SDS_P2;PMS_P1;PMS_P2;Temp;Humidity;BMP_temperature;BMP_pressure;BME280_temperature;BME280_humidity;BME280_pressure;Samples;Min_cycle;Max_cycle;Signal;HPM_P1;HPM_P2
2021/05/03 00:00:52;;;;;;;21.25;19.02;;;20.20;70.50;;;;;;4165535;28;20060;-62
2021/05/03 00:02:54;;;;;;;20.90;18.80;;;20.30;70.30;;;;;;4166355;28;20091;-64
2021/05/03 00:04:56;;;;;;;20.35;18.25;;;20.30;70.10;;;;;;4161181;28;20525;-63
2021/05/03 00:06:58;;;;;;;20.17;18.08;;;20.30;70.00;;;;;;4162153;28;20314;-62
2021/05/03 00:09:01;;;;;;;20.63;18.63;;;20.30;69.70;;;;;;4161868;28;20038;-64
2021/05/03 00:11:03;;;;;;;19.65;17.73;;;20.30;69.70;;;;;;4167849;28;20056;-62
2021/05/03 00:13:05;;;;;;;19.23;17.23;;;20.30;69.50;;;;;;4165432;28;20055;-63
2021/05/03 00:15:08;;;;;;;17.80;15.93;;;20.30;70.00;;;;;;4158154;28;20506;-61
2021/05/03 00:17:10;;;;;;;18.45;16.50;;;20.30;69.30;;;;;;4160983;28;20333;-62
2021/05/03 00:19:12;;;;;;;16.42;14.77;;;20.30;69.30;;;;;;4157202;28;20036;-62
2021/05/03 00:21:14;;;;;;;16.88;15.18;;;20.30;69.40;;;;;;4160782;28;20060;-65
2021/05/03 00:23:16;;;;;;;15.63;13.68;;;20.40;69.50;;;;;;4161656;28;20313;-71
2021/05/03 00:25:18;;;;;;;13.85;12.40;;;20.40;70.10;;;;;;4160477;28;20009;-67
2021/05/03 00:27:20;;;;;;;14.05;12.70;;;20.40;69.50;;;;;;4167077;28;20544;-63
2021/05/03 00:29:23;;;;;;;15.77;12.32;;;20.40;69.60;;;;;;4163060;28;20484;-62
2021/05/03 00:31:25;;;;;;;14.40;11.43;;;20.40;69.50;;;;;;4162006;28;20025;-65
2021/05/03 00:33:27;;;;;;;12.25;10.95;;;20.40;69.60;;;;;;4166337;28;20029;-61
2021/05/03 00:35:29;;;;;;;12.55;10.68;;;20.40;69.60;;;;;;4155679;28;20049;-65
2021/05/03 00:37:31;;;;;;;11.82;10.60;;;20.50;69.60;;;;;;4145986;28;20119;-63
2021/05/03 00:39:33;;;;;;;11.85;10.65;;;20.50;69.50;;;;;;4163355;28;20114;-61
2021/05/03 00:41:35;;;;;;;11.13;9.15;;;20.50;69.50;;;;;;4163445;28;20032;-66
2021/05/03 00:43:37;;;;;;;10.68;9.57;;;20.50;69.50;;;;;;4149144;28;20037;-64
2021/05/03 00:45:39;;;;;;;9.93;8.93;;;20.50;69.50;;;;;;4164897;28;20468;-65
2021/05/03 00:47:42;;;;;;;9.63;8.63;;;20.50;69.50;;;;;;4157053;28;20098;-62
2021/05/03 00:49:44;;;;;;;9.73;8.70;;;20.60;69.40;;;;;;4160993;28;20182;-65
2021/05/03 00:51:46;;;;;;;9.35;8.35;;;20.50;69.40;;;;;;4163366;28;20030;-66
2021/05/03 00:53:48;;;;;;;12.98;8.02;;;20.60;69.40;;;;;;4164505;28;20053;-65
2021/05/03 00:55:50;;;;;;;8.93;7.40;;;20.60;69.40;;;;;;4161581;28;20479;-63
2021/05/03 00:57:52;;;;;;;9.88;8.50;;;20.60;69.50;;;;;;4165599;28;20056;-64
2021/05/03 00:59:54;;;;;;;8.73;7.82;;;20.60;69.40;;;;;;4163700;28;20033;-62
2021/05/03 01:01:56;;;;;;;8.40;7.55;;;20.60;69.40;;;;;;4160044;28;20045;-65
2021/05/03 01:03:58;;;;;;;7.15;6.45;;;20.70;69.50;;;;;;4162752;28;20051;-63
2021/05/03 01:06:00;;;;;;;8.98;6.88;;;20.70;69.50;;;;;;4163953;28;20013;-65
2021/05/03 01:08:04;;;;;;;8.55;6.93;;;20.70;69.50;;;;;;4161146;28;20032;-62
2021/05/03 01:10:06;;;;;;;8.48;6.05;;;20.70;70.10;;;;;;4154372;28;20025;-64
2021/05/03 01:12:09;;;;;;;7.45;5.93;;;20.70;69.40;;;;;;4162919;28;20029;-67
2021/05/03 01:14:12;;;;;;;6.78;5.93;;;20.80;69.40;;;;;;4162262;28;20136;-64
2021/05/03 01:16:15;;;;;;;6.67;5.70;;;20.80;69.30;;;;;;4164791;28;20029;-63
2021/05/03 01:18:23;;;;;;;7.55;5.65;;;20.80;69.30;;;;;;4168114;28;20037;-65
2021/05/03 01:20:27;;;;;;;6.28;5.45;;;20.80;69.30;;;;;;4159777;28;20048;-65
2021/05/03 01:22:34;;;;;;;6.25;5.63;;;20.80;69.30;;;;;;4162826;28;20429;-63
2021/05/03 01:24:36;;;;;;;7.32;6.50;;;20.80;69.30;;;;;;4162827;28;20126;-64
2021/05/03 01:26:38;;;;;;;6.82;5.78;;;20.90;69.40;;;;;;4159101;28;20049;-67
2021/05/03 01:28:40;;;;;;;6.93;6.22;;;20.90;69.30;;;;;;4161262;28;20301;-63
2021/05/03 01:30:45;;;;;;;7.57;5.68;;;20.90;69.30;;;;;;4164656;28;20041;-66
2021/05/03 01:32:47;;;;;;;7.53;5.78;;;20.90;69.30;;;;;;4160780;28;20036;-65
2021/05/03 01:34:49;;;;;;;7.13;5.53;;;21.00;69.40;;;;;;4159070;28;20060;-65
2021/05/03 01:36:51;;;;;;;6.93;6.05;;;21.00;69.30;;;;;;4154009;28;20032;-67
2021/05/03 01:38:54;;;;;;;6.60;5.90;;;21.00;69.40;;;;;;4165325;28;20041;-65
2021/05/03 01:40:56;;;;;;;6.85;5.72;;;21.00;69.40;;;;;;4162504;28;20040;-66
2021/05/03 01:43:10;;;;;;;6.97;5.53;;;21.00;69.40;;;;;;4163463;28;20068;-65
2021/05/03 01:45:13;;;;;;;6.88;5.20;;;21.00;69.60;;;;;;4162946;28;20049;-63
2021/05/03 01:47:15;;;;;;;6.35;5.47;;;21.00;69.60;;;;;;4163550;28;20223;-66
2021/05/03 01:49:18;;;;;;;5.85;5.10;;;21.00;69.50;;;;;;4162347;28;20431;-66
2021/05/03 01:51:20;;;;;;;5.68;5.00;;;21.10;70.10;;;;;;4165151;28;20017;-64
2021/05/03 01:53:23;;;;;;;5.97;4.88;;;21.10;69.50;;;;;;4156530;28;20436;-64
2021/05/03 01:55:25;;;;;;;5.40;4.80;;;21.10;69.50;;;;;;4162375;28;20112;-65
2021/05/03 01:57:27;;;;;;;6.82;4.93;;;21.10;69.40;;;;;;4162658;28;20025;-62
2021/05/03 01:59:33;;;;;;;16.90;5.88;;;21.10;69.50;;;;;;4163181;28;20066;-61
2021/05/03 02:01:39;;;;;;;8.38;6.10;;;21.10;69.60;;;;;;4162704;28;20044;-65
2021/05/03 02:03:41;;;;;;;11.05;6.97;;;21.10;69.40;;;;;;4161971;28;20589;-63
2021/05/03 02:05:43;;;;;;;7.82;6.80;;;21.20;69.20;;;;;;4161596;28;20288;-65
2021/05/03 02:07:45;;;;;;;8.15;6.72;;;21.20;69.70;;;;;;4164345;28;20144;-65
2021/05/03 02:09:47;;;;;;;10.00;7.63;;;21.20;69.70;;;;;;4159666;28;20099;-65
2021/05/03 02:11:49;;;;;;;8.82;7.40;;;21.20;69.00;;;;;;4164824;28;20047;-64
2021/05/03 02:13:51;;;;;;;9.30;7.50;;;21.30;69.00;;;;;;4153963;28;20037;-70
2021/05/03 02:15:54;;;;;;;9.73;7.43;;;21.30;68.90;;;;;;4163250;28;20906;-64
2021/05/03 02:17:56;;;;;;;8.27;7.22;;;21.30;68.70;;;;;;4161562;28;20565;-68
2021/05/03 02:19:59;;;;;;;8.95;7.90;;;21.30;68.70;;;;;;4165800;28;20037;-63
2021/05/03 02:22:01;;;;;;;8.18;7.32;;;21.40;68.70;;;;;;4165023;28;20033;-66
2021/05/03 02:24:03;;;;;;;8.60;7.15;;;21.40;68.70;;;;;;4163474;28;20406;-69
2021/05/03 02:26:05;;;;;;;8.75;7.85;;;21.40;68.70;;;;;;4180129;28;20135;-68
2021/05/03 02:28:07;;;;;;;7.65;6.85;;;21.40;68.50;;;;;;4167224;28;20131;-68
2021/05/03 02:30:11;;;;;;;8.35;7.38;;;21.40;68.50;;;;;;4163402;28;20445;-68
2021/05/03 02:32:13;;;;;;;9.65;7.18;;;21.50;68.50;;;;;;4163259;28;20036;-66
2021/05/03 02:34:15;;;;;;;7.68;6.90;;;21.50;68.50;;;;;;4169619;28;20021;-66
2021/05/03 02:36:19;;;;;;;10.45;7.10;;;21.50;68.40;;;;;;4166275;28;20092;-68
2021/05/03 02:38:21;;;;;;;8.85;7.03;;;21.50;68.20;;;;;;4167541;28;20029;-70
2021/05/03 02:40:26;;;;;;;8.88;7.07;;;21.50;68.00;;;;;;4164054;28;20028;-69
2021/05/03 02:42:28;;;;;;;8.60;7.28;;;21.50;67.90;;;;;;4169421;28;20044;-68
2021/05/03 02:44:30;;;;;;;8.55;7.00;;;21.50;67.80;;;;;;4165930;28;20040;-70
2021/05/03 02:46:33;;;;;;;8.48;7.53;;;21.50;67.70;;;;;;4168901;28;20044;-67
2021/05/03 02:48:35;;;;;;;10.23;7.82;;;21.50;67.80;;;;;;4164150;28;20414;-69
2021/05/03 02:50:38;;;;;;;8.05;7.25;;;21.50;67.80;;;;;;4165958;28;20040;-68
2021/05/03 02:52:41;;;;;;;7.85;7.05;;;21.50;67.80;;;;;;4163613;28;20033;-70
2021/05/03 02:54:43;;;;;;;8.55;7.65;;;21.50;67.80;;;;;;4169773;28;20486;-70
2021/05/03 02:56:45;;;;;;;7.80;6.80;;;21.50;67.80;;;;;;4158597;28;20861;-71
2021/05/03 02:58:47;;;;;;;9.05;8.10;;;21.50;67.70;;;;;;4160365;28;20041;-68
2021/05/03 03:00:49;;;;;;;9.05;8.05;;;21.50;67.70;;;;;;4160383;28;21054;-69
2021/05/03 03:02:51;;;;;;;9.20;7.43;;;21.50;67.80;;;;;;4165172;28;20651;-72
2021/05/03 03:04:53;;;;;;;9.73;8.10;;;21.50;67.70;;;;;;4161059;28;20029;-63
2021/05/03 03:06:55;;;;;;;9.27;7.93;;;21.60;68.00;;;;;;4160510;28;20332;-71
2021/05/03 03:08:58;;;;;;;7.90;7.10;;;21.50;67.70;;;;;;4160866;28;20128;-66
2021/05/03 03:11:00;;;;;;;8.38;6.53;;;21.60;67.90;;;;;;4157366;28;21173;-67
2021/05/03 03:13:04;;;;;;;8.43;6.47;;;21.60;68.30;;;;;;4160108;28;20308;-62
2021/05/03 03:15:11;;;;;;;8.63;6.28;;;21.70;68.10;;;;;;4159789;28;20057;-67
2021/05/03 03:17:13;;;;;;;8.43;5.90;;;21.70;68.20;;;;;;4160792;28;20925;-75
2021/05/03 03:19:15;;;;;;;6.70;5.20;;;;;;;;;;4156455;28;20457;-69
2021/05/03 03:21:18;;;;;;;6.78;5.20;;;21.70;68.60;;;;;;4154458;28;20040;-81
2021/05/03 03:23:20;;;;;;;6.90;4.60;;;21.80;69.10;;;;;;4157060;28;20102;-75
2021/05/03 03:25:23;;;;;;;6.22;4.55;;;21.90;68.40;;;;;;4154027;28;20028;-67
2021/05/03 03:27:25;;;;;;;6.38;5.05;;;22.00;68.30;;;;;;4163308;28;20036;-70
2021/05/03 03:29:27;;;;;;;6.03;4.38;;;22.00;68.20;;;;;;4154631;28;20068;-70
2021/05/03 03:31:29;;;;;;;5.63;4.00;;;22.10;68.20;;;;;;4155354;28;20382;-75
2021/05/03 03:33:32;;;;;;;5.40;3.83;;;22.20;68.20;;;;;;4160140;28;20090;-71
2021/05/03 03:35:34;;;;;;;6.88;3.97;;;22.20;68.10;;;;;;4155878;28;20037;-77
2021/05/03 03:37:36;;;;;;;5.95;3.78;;;;;;;;;;4163618;28;20056;-73
2021/05/03 03:39:38;;;;;;;4.50;3.08;;;;;;;;;;4155897;28;20124;-72
2021/05/03 03:41:40;;;;;;;4.65;3.92;;;;;;;;;;4156987;28;20033;-68
2021/05/03 03:43:42;;;;;;;5.47;3.50;;;;;;;;;;4159073;28;20101;-76
2021/05/03 03:45:44;;;;;;;6.50;3.33;;;;;;;;;;4163463;28;20021;-75
2021/05/03 03:47:46;;;;;;;5.03;3.33;;;;;;;;;;4158186;28;20474;-74
2021/05/03 03:49:48;;;;;;;4.60;3.45;;;;;;;;;;4156762;28;20059;-71
2021/05/03 03:51:50;;;;;;;5.10;3.45;;;;;;;;;;4163003;28;20282;-74
2021/05/03 03:53:54;;;;;;;3.90;2.88;;;;;;;;;;4157900;28;20372;-70
2021/05/03 03:55:56;;;;;;;4.25;3.28;;;;;;;;;;4158073;28;20037;-73
2021/05/03 03:57:58;;;;;;;3.90;3.20;;;;;;;;;;4161150;28;20359;-69
2021/05/03 04:00:00;;;;;;;4.05;3.20;;;;;;;;;;4159986;28;21294;-76
2021/05/03 04:02:02;;;;;;;4.22;3.30;;;;;;;;;;4157246;28;20048;-80
2021/05/03 04:04:06;;;;;;;3.40;2.65;;;;;;;;;;4164381;28;20036;-74
2021/05/03 04:08:17;;;;;;;4.72;3.10;;;;;;;;;;4160000;28;20578;-71
2021/05/03 04:25:58;;;;;;;5.60;4.68;;;;;;;;;;4150727;28;20060;-66
2021/05/03 04:28:00;;;;;;;5.90;3.90;;;;;;;;;;4157166;28;20252;-65
2021/05/03 04:30:03;;;;;;;6.55;4.68;;;;;;;;;;4154299;28;20083;-66
2021/05/03 04:32:05;;;;;;;7.77;4.50;;;;;;;;;;4155843;28;20036;-63
2021/05/03 04:34:07;;;;;;;6.55;4.47;;;;;;;;;;4150091;28;20116;-64
2021/05/03 04:36:10;;;;;;;6.35;4.80;;;;;;;;;;4144856;28;20029;-62
2021/05/03 04:38:12;;;;;;;5.20;4.20;;;;;;;;;;4150519;28;20399;-61
2021/05/03 04:40:14;;;;;;;4.88;3.95;;;22.20;68.00;;;;;;4157720;28;20036;-62
2021/05/03 04:42:16;;;;;;;5.95;4.20;;;;;;;;;;4152258;28;20079;-62
2021/05/03 04:44:18;;;;;;;7.32;4.75;;;;;;;;;;4150447;28;20557;-64
2021/05/03 04:46:20;;;;;;;5.53;4.35;;;;;;;;;;4156515;28;20621;-63
2021/05/03 04:48:22;;;;;;;5.47;4.00;;;;;;;;;;4152798;28;20448;-61
2021/05/03 04:50:24;;;;;;;5.38;3.95;;;;;;;;;;4156212;28;20167;-63
2021/05/03 04:52:27;;;;;;;5.75;4.35;;;;;;;;;;4151887;28;20064;-62
2021/05/03 04:54:29;;;;;;;4.85;4.30;;;;;;;;;;4160856;28;20037;-59
2021/05/03 04:56:31;;;;;;;6.10;4.20;;;;;;;;;;4152683;28;20047;-63
2021/05/03 04:58:32;;;;;;;11.20;4.07;;;;;;;;;;4153576;28;20035;-63
2021/05/03 05:00:35;;;;;;;5.65;4.00;;;;;;;;;;4160099;28;20042;-63
2021/05/03 05:02:37;;;;;;;6.95;4.30;;;;;;;;;;4154309;28;20096;-63
2021/05/03 05:04:39;;;;;;;6.93;4.40;;;;;;;;;;4154782;28;20033;-63
2021/05/03 05:06:41;;;;;;;6.57;4.40;;;;;;;;;;4157754;28;20036;-63
2021/05/03 05:08:43;;;;;;;6.38;4.30;;;;;;;;;;4154911;28;20087;-64
2021/05/03 05:10:45;;;;;;;6.82;4.80;;;23.90;63.90;;;;;;4153954;28;20030;-64
2021/05/03 05:12:51;;;;;;;5.45;4.25;;;24.60;61.40;;;;;;4153415;28;20084;-63
2021/05/03 05:14:53;;;;;;;4.53;4.07;;;;;;;;;;4155372;28;20425;-64
2021/05/03 05:16:56;;;;;;;4.93;3.50;;;24.60;62.00;;;;;;4151162;28;20548;-63
2021/05/03 05:18:58;;;;;;;5.45;4.10;;;24.70;62.30;;;;;;4161010;28;20062;-66
2021/05/03 05:21:01;;;;;;;6.55;4.10;;;24.80;62.30;;;;;;4156373;28;20268;-65
2021/05/03 05:23:06;;;;;;;5.47;3.63;;;;;;;;;;4163520;28;20605;-64
2021/05/03 05:25:09;;;;;;;4.97;3.80;;;;;;;;;;4157310;28;20399;-64
2021/05/03 05:27:11;;;;;;;3.58;2.88;;;;;;;;;;4149750;28;20785;-64
2021/05/03 05:29:13;;;;;;;4.35;3.33;;;;;;;;;;4157083;28;20064;-66
2021/05/03 05:31:15;;;;;;;5.30;3.55;;;;;;;;;;4154701;28;20013;-65
2021/05/03 05:33:17;;;;;;;11.50;3.13;;;;;;;;;;4156213;28;20037;-63
2021/05/03 05:35:19;;;;;;;4.50;3.00;;;;;;;;;;4157162;28;20069;-64
2021/05/03 05:37:21;;;;;;;5.22;2.75;;;;;;;;;;4153355;28;20655;-62
2021/05/03 05:39:23;;;;;;;3.63;2.60;;;;;;;;;;4152434;28;20036;-62
2021/05/03 05:41:25;;;;;;;3.92;2.60;;;;;;;;;;4152952;28;20429;-61
2021/05/03 05:43:27;;;;;;;4.63;2.90;;;;;;;;;;4153141;28;20045;-63
2021/05/03 05:45:29;;;;;;;5.10;2.63;;;;;;;;;;4156215;28;20341;-62
2021/05/03 05:47:31;;;;;;;3.88;2.60;;;;;;;;;;4151689;28;20033;-62
2021/05/03 05:49:33;;;;;;;3.75;2.30;;;;;;;;;;4155246;28;20488;-64
2021/05/03 05:51:35;;;;;;;4.35;2.50;;;;;;;;;;4147499;28;20044;-63
2021/05/03 05:53:37;;;;;;;21.17;3.15;;;;;;;;;;4155386;28;20029;-61
2021/05/03 05:55:40;;;;;;;2.88;2.42;;;;;;;;;;4154265;28;20099;-62
2021/05/03 05:57:42;;;;;;;5.15;2.60;;;;;;;;;;4153036;28;20097;-63
2021/05/03 05:59:44;;;;;;;3.63;2.75;;;;;;;;;;4152441;28;20048;-62
2021/05/03 06:01:46;;;;;;;4.00;2.30;;;;;;;;;;4135238;28;20069;-64
2021/05/03 06:03:48;;;;;;;4.85;2.38;;;;;;;;;;4155874;28;20080;-63
2021/05/03 06:05:50;;;;;;;3.72;2.40;;;;;;;;;;4151613;28;20410;-61
2021/05/03 06:07:52;;;;;;;3.90;2.60;;;;;;;;;;4156774;28;20128;-62
2021/05/03 06:09:54;;;;;;;3.05;2.30;;;;;;;;;;4154387;28;20072;-62
2021/05/03 06:11:56;;;;;;;3.42;2.30;;;;;;;;;;4158339;28;20042;-63
2021/05/03 06:13:59;;;;;;;5.32;2.15;;;;;;;;;;4159184;28;20033;-63
2021/05/03 06:16:01;;;;;;;4.68;2.25;;;;;;;;;;4159211;28;20482;-62
2021/05/03 06:18:04;;;;;;;3.00;2.47;;;;;;;;;;4164259;28;20405;-62
2021/05/03 06:20:06;;;;;;;4.78;2.17;;;;;;;;;;4162338;28;20470;-63
2021/05/03 06:22:09;;;;;;;2.23;1.77;;;;;;;;;;4162857;28;20068;-62
2021/05/03 06:24:11;;;;;;;3.10;2.20;;;;;;;;;;4162902;28;20383;-62
2021/05/03 06:26:13;;;;;;;4.03;2.30;;;;;;;;;;4156140;28;20029;-62
2021/05/03 06:28:15;;;;;;;7.07;2.72;;;;;;;;;;4163650;28;20092;-62
2021/05/03 06:30:17;;;;;;;5.18;2.75;;;;;;;;;;4161176;28;20033;-66
2021/05/03 06:32:20;;;;;;;4.67;3.30;;;;;;;;;;4162762;28;20138;-67
2021/05/03 06:34:23;;;;;;;4.75;2.90;;;;;;;;;;4160344;28;20267;-72
2021/05/03 06:36:25;;;;;;;8.50;4.88;;;;;;;;;;4160800;28;20032;-70
2021/05/03 06:38:27;;;;;;;7.32;4.97;;;;;;;;;;4158409;28;20376;-68
2021/05/03 06:40:29;;;;;;;8.35;5.05;;;;;;;;;;4162185;28;20090;-67
2021/05/03 06:42:31;;;;;;;14.40;3.90;;;;;;;;;;4162261;28;20095;-68
2021/05/03 06:44:36;;;;;;;5.68;3.88;;;;;;;;;;4159386;28;20491;-62
2021/05/03 06:46:39;;;;;;;9.93;4.00;;;;;;;;;;4156565;28;20041;-63
2021/05/03 06:48:41;;;;;;;6.32;3.60;;;;;;;;;;4156178;28;20029;-62
2021/05/03 06:50:46;;;;;;;6.15;3.47;;;;;;;;;;4158164;28;20749;-62
2021/05/03 06:52:48;;;;;;;4.47;3.13;;;;;;;;;;4151894;28;20185;-62
2021/05/03 06:54:50;;;;;;;4.65;3.20;;;;;;;;;;4160172;28;20075;-63
2021/05/03 06:56:52;;;;;;;5.25;3.30;;;;;;;;;;4161291;28;20041;-67
2021/05/03 06:58:54;;;;;;;6.80;3.30;;;;;;;;;;4160618;28;20025;-68
2021/05/03 07:00:56;;;;;;;3.85;3.03;;;;;;;;;;4163296;28;20025;-71
2021/05/03 07:02:58;;;;;;;6.68;3.25;;;;;;;;;;4162952;28;20053;-68
2021/05/03 07:05:00;;;;;;;5.28;3.20;;;;;;;;;;4160674;28;20522;-70
2021/05/03 07:07:02;;;;;;;7.25;3.38;;;;;;;;;;4162676;28;20125;-70
2021/05/03 07:09:08;;;;;;;4.90;2.90;;;;;;;;;;4158757;28;20443;-65
2021/05/03 07:11:16;;;;;;;4.85;2.88;;;;;;;;;;4162912;28;20045;-70
2021/05/03 07:13:18;;;;;;;4.93;2.97;;;;;;;;;;4162230;28;20036;-69
2021/05/03 07:15:20;;;;;;;9.23;3.45;;;;;;;;;;4168896;28;20028;-68
2021/05/03 07:17:22;;;;;;;6.33;2.67;;;;;;;;;;4165877;28;20037;-66
2021/05/03 07:19:24;;;;;;;5.25;2.90;;;;;;;;;;4161471;28;20033;-64
2021/05/03 07:21:26;;;;;;;7.97;3.15;;;;;;;;;;4166261;28;20041;-70
2021/05/03 07:23:28;;;;;;;8.77;3.40;;;;;;;;;;4162224;28;20049;-67
2021/05/03 07:25:30;;;;;;;11.48;3.17;;;;;;;;;;4163565;28;20564;-72
2021/05/03 07:27:32;;;;;;;13.65;3.60;;;;;;;;;;4165350;28;20298;-71
2021/05/03 07:29:34;;;;;;;7.05;2.92;;;;;;;;;;4163592;28;20417;-65
2021/05/03 07:31:37;;;;;;;7.10;3.28;;;;;;;;;;4157321;28;20144;-68
2021/05/03 07:33:39;;;;;;;9.18;2.75;;;;;;;;;;4165331;28;20075;-66
2021/05/03 07:35:41;;;;;;;10.13;2.78;;;;;;;;;;4158921;28;20124;-65
2021/05/03 07:37:43;;;;;;;9.45;2.97;;;;;;;;;;4166236;28;20021;-66
2021/05/03 07:39:45;;;;;;;4.25;2.97;;;;;;;;;;4165592;28;20449;-66
2021/05/03 07:41:47;;;;;;;6.53;2.90;;;;;;;;;;4164665;28;20040;-65
2021/05/03 07:43:49;;;;;;;7.13;3.58;;;;;;;;;;4163544;28;20179;-73
2021/05/03 07:45:51;;;;;;;6.70;2.90;;;;;;;;;;4166341;28;20024;-69
2021/05/03 07:47:53;;;;;;;5.15;3.03;;;;;;;;;;4165165;28;20360;-63
2021/05/03 07:49:55;;;;;;;4.63;3.22;;;;;;;;;;4161718;28;20040;-65
2021/05/03 07:51:57;;;;;;;5.88;3.03;;;;;;;;;;4166332;28;20036;-65
2021/05/03 07:54:00;;;;;;;7.85;3.00;;;;;;;;;;4162536;28;20108;-62
2021/05/03 07:56:02;;;;;;;5.60;3.25;;;;;;;;;;4161360;28;20098;-64
2021/05/03 07:58:04;;;;;;;6.03;3.00;;;;;;;;;;4163821;28;20018;-65
2021/05/03 08:00:06;;;;;;;4.25;2.80;;;;;;;;;;4162833;28;20044;-64
2021/05/03 08:02:08;;;;;;;6.50;2.97;;;;;;;;;;4165164;28;20041;-64
2021/05/03 08:04:10;;;;;;;3.55;2.50;;;;;;;;;;4165432;28;20135;-64
2021/05/03 08:06:14;;;;;;;6.05;2.70;;;;;;;;;;4163040;28;20030;-62
2021/05/03 08:08:16;;;;;;;4.90;2.90;;;;;;;;;;4162211;28;20370;-63
2021/05/03 08:10:18;;;;;;;3.97;2.63;;;;;;;;;;4165051;28;20036;-64
2021/05/03 08:12:21;;;;;;;4.35;2.50;;;;;;;;;;4161010;28;20135;-63
2021/05/03 08:14:23;;;;;;;3.63;2.67;;;;;;;;;;4166358;28;20029;-63
2021/05/03 08:16:26;;;;;;;3.63;2.83;;;;;;;;;;4162669;28;20085;-63
2021/05/03 08:18:29;;;;;;;3.30;2.70;;;;;;;;;;4163344;28;20021;-61
2021/05/03 08:20:31;;;;;;;3.40;2.63;;;;;;;;;;4163994;28;20033;-62
2021/05/03 08:22:33;;;;;;;4.45;2.50;;;;;;;;;;4155430;28;20115;-63
2021/05/03 08:24:35;;;;;;;3.70;2.78;;;;;;;;;;4161753;28;20024;-62
2021/05/03 08:26:38;;;;;;;4.00;2.53;;;;;;;;;;4160104;28;20126;-63
2021/05/03 08:28:40;;;;;;;4.25;2.72;;;24.80;62.50;;;;;;4156257;28;20569;-69
2021/05/03 08:30:43;;;;;;;3.60;2.85;;;24.70;65.30;;;;;;4163844;28;20098;-69
2021/05/03 08:32:45;;;;;;;4.50;2.67;;;24.60;65.30;;;;;;4158686;28;20033;-62
2021/05/03 08:34:47;;;;;;;5.18;2.67;;;24.60;65.30;;;;;;4159493;28;20060;-61
2021/05/03 08:36:52;;;;;;;4.67;2.90;;;24.60;65.50;;;;;;4159291;28;20021;-62
2021/05/03 08:38:54;;;;;;;7.15;3.58;;;24.60;65.50;;;;;;4157356;28;20053;-70
2021/05/03 08:40:58;;;;;;;7.75;4.50;;;24.60;65.10;;;;;;4157784;28;20525;-67
2021/05/03 08:43:02;;;;;;;13.52;4.65;;;24.60;65.10;;;;;;4167241;28;20071;-67
2021/05/03 08:45:06;;;;;;;7.70;4.03;;;24.60;65.30;;;;;;4160242;28;20060;-67
2021/05/03 08:47:08;;;;;;;6.82;3.92;;;24.60;65.40;;;;;;4151282;28;20128;-67
2021/05/03 08:49:32;;;;;;;5.85;3.45;;;24.50;65.40;;;;;;4164663;28;20027;-67
2021/05/03 08:53:44;;;;;;;4.22;3.15;;;24.60;65.60;;;;;;4162739;28;20033;-72
2021/05/03 08:55:46;;;;;;;6.07;3.50;;;24.50;65.70;;;;;;4158942;28;20535;-67
2021/05/03 08:57:49;;;;;;;6.00;3.00;;;24.50;65.70;;;;;;4163168;28;20027;-68
2021/05/03 08:59:51;;;;;;;4.80;3.60;;;24.50;66.20;;;;;;4161815;28;20181;-67
2021/05/03 09:01:53;;;;;;;4.45;2.90;;;24.50;65.60;;;;;;4162516;28;20060;-67
2021/05/03 09:03:56;;;;;;;7.10;2.93;;;24.50;65.60;;;;;;4160936;28;20513;-71
2021/05/03 09:06:02;;;;;;;;;;;24.50;65.60;;;;;;4166582;28;20127;-68
2021/05/03 09:08:04;;;;;;;6.85;3.40;;;24.50;65.70;;;;;;4160581;28;19920;-66
2021/05/03 09:10:14;;;;;;;7.57;2.97;;;24.40;65.80;;;;;;4159783;28;20051;-64
2021/05/03 09:12:18;;;;;;;5.97;3.13;;;24.40;66.10;;;;;;4162007;28;20447;-69
2021/05/03 09:14:20;;;;;;;8.85;3.05;;;24.50;66.30;;;;;;4162020;28;20037;-64
2021/05/03 09:16:24;;;;;;;4.75;3.13;;;24.50;66.10;;;;;;4164654;28;21364;-63
2021/05/03 09:18:29;;;;;;;5.13;2.80;;;24.40;65.80;;;;;;4159262;28;20120;-62
2021/05/03 09:20:32;;;;;;;3.22;2.67;;;24.40;65.70;;;;;;4151526;28;20025;-62
2021/05/03 09:22:58;;;;;;;6.28;2.90;;;24.40;66.30;;;;;;4161029;28;20045;-62
2021/05/03 09:25:20;;;;;;;5.47;2.75;;;24.40;65.60;;;;;;4154734;28;20112;-63
2021/05/03 09:27:23;;;;;;;5.07;2.70;;;24.40;65.50;;;;;;4158215;28;20244;-68
2021/05/03 09:29:36;;;;;;;11.43;2.72;;;24.40;65.50;;;;;;4152537;28;20036;-68
2021/05/03 09:32:01;;;;;;;6.40;3.05;;;24.40;65.70;;;;;;4154541;28;20187;-64
2021/05/03 09:34:03;;;;;;;5.75;2.70;;;24.40;65.80;;;;;;4155935;28;20123;-68
2021/05/03 09:36:10;;;;;;;5.80;3.08;;;24.30;66.10;;;;;;4155082;28;20453;-68
2021/05/03 09:38:44;;;;;;;5.80;2.60;;;24.30;66.10;;;;;;4158685;28;20048;-62
2021/05/03 09:40:46;;;;;;;;;;;24.30;66.20;;;;;;4154180;28;20037;-67
2021/05/03 09:42:54;;;;;;;4.70;2.75;;;24.30;66.50;;;;;;4160398;28;19920;-67
2021/05/03 09:45:11;;;;;;;6.85;2.90;;;24.30;66.60;;;;;;4158314;28;20401;-69
2021/05/03 09:47:14;;;;;;;4.65;2.88;;;24.30;66.70;;;;;;4157125;28;20033;-68
2021/05/03 09:49:21;;;;;;;4.70;2.78;;;24.30;66.80;;;;;;4160297;28;20021;-70
2021/05/03 09:51:38;;;;;;;4.55;2.63;;;24.30;66.90;;;;;;4174086;28;20036;-72
2021/05/03 09:53:40;;;;;;;4.95;2.97;;;24.30;67.00;;;;;;4154791;28;20041;-71
2021/05/03 09:55:49;;;;;;;4.67;2.77;;;24.30;67.10;;;;;;4157860;28;20124;-70
2021/05/03 09:58:18;;;;;;;4.85;2.42;;;24.30;67.10;;;;;;4160783;28;20336;-70
2021/05/03 10:00:36;;;;;;;5.13;2.55;;;24.30;67.10;;;;;;4143652;28;20378;-66
2021/05/03 10:02:38;;;;;;;4.03;2.20;;;24.30;67.20;;;;;;4163469;28;20084;-68
2021/05/03 10:05:10;;;;;;;4.45;2.70;;;24.20;67.20;;;;;;4142786;28;20079;-67
2021/05/03 10:07:12;;;;;;;3.60;2.35;;;24.30;67.20;;;;;;4155399;28;20279;-68
2021/05/03 10:09:18;;;;;;;3.20;2.28;;;24.20;67.30;;;;;;4137178;28;20131;-66
2021/05/03 10:11:28;;;;;;;3.90;2.63;;;24.20;67.30;;;;;;4140925;28;20820;-71
2021/05/03 10:13:32;;;;;;;4.85;2.28;;;24.20;67.30;;;;;;4141971;28;20051;-71
2021/05/03 10:15:34;;;;;;;3.88;2.05;;;24.20;67.30;;;;;;4157083;28;20053;-66
2021/05/03 10:17:40;;;;;;;3.72;2.20;;;24.20;67.20;;;;;;4126353;28;20383;-66
2021/05/03 10:19:44;;;;;;;3.33;1.98;;;24.20;67.20;;;;;;4160598;28;20033;-69
2021/05/03 10:21:47;;;;;;;3.72;2.55;;;24.20;67.30;;;;;;4133703;28;20076;-66
2021/05/03 10:23:50;;;;;;;4.80;2.20;;;24.20;67.30;;;;;;4154844;28;20155;-64
2021/05/03 10:26:00;;;;;;;5.10;2.00;;;24.20;67.40;;;;;;4153571;28;20564;-60
2021/05/03 10:28:02;;;;;;;4.07;2.35;;;24.20;67.40;;;;;;4156281;28;20262;-64
2021/05/03 10:30:13;;;;;;;3.97;2.17;;;24.20;67.70;;;;;;4154045;28;20048;-64
2021/05/03 10:32:26;;;;;;;4.47;1.90;;;24.20;67.70;;;;;;4157454;28;20417;-62
2021/05/03 10:34:54;;;;;;;9.50;2.28;;;24.20;67.80;;;;;;4156265;28;20286;-62
2021/05/03 10:36:57;;;;;;;5.60;2.20;;;24.20;67.70;;;;;;4160482;28;20056;-68
2021/05/03 10:38:59;;;;;;;3.28;2.20;;;24.20;67.70;;;;;;4128284;28;20037;-66
2021/05/03 10:41:22;;;;;;;4.87;2.07;;;24.20;67.70;;;;;;4156859;28;20631;-64
2021/05/03 10:43:28;;;;;;;5.68;2.22;;;24.20;67.70;;;;;;4151698;28;20041;-65
2021/05/03 10:45:46;;;;;;;7.40;2.63;;;24.20;67.60;;;;;;4156444;28;20549;-64
2021/05/03 10:47:52;;;;;;;4.90;2.45;;;24.20;67.70;;;;;;4132472;28;20128;-60
2021/05/03 10:49:55;;;;;;;6.90;2.42;;;24.20;67.60;;;;;;4159484;28;20379;-61
2021/05/03 10:52:05;;;;;;;5.65;2.78;;;24.20;67.70;;;;;;4160906;28;20103;-65
2021/05/03 10:54:47;;;;;;;4.25;2.63;;;24.20;67.70;;;;;;4127156;28;20133;-64
2021/05/03 10:56:49;;;;;;;4.30;2.42;;;24.20;67.70;;;;;;4154596;28;20402;-62
2021/05/03 10:58:57;;;;;;;6.47;2.50;;;24.20;67.60;;;;;;4157503;28;20029;-61
2021/05/03 11:01:02;;;;;;;5.78;2.67;;;24.20;67.60;;;;;;4155387;28;20036;-61
2021/05/03 11:03:04;;;;;;;6.07;2.75;;;24.20;67.50;;;;;;4144079;28;20711;-63
2021/05/03 11:05:27;;;;;;;5.47;2.58;;;24.20;67.50;;;;;;4154317;28;20802;-62
2021/05/03 11:07:29;;;;;;;6.82;3.00;;;24.20;67.50;;;;;;4134052;28;20152;-61
2021/05/03 11:09:35;;;;;;;7.15;3.15;;;24.20;67.50;;;;;;4158046;28;20081;-67
2021/05/03 11:11:46;;;;;;;7.18;2.90;;;24.10;68.10;;;;;;4158879;28;20033;-62
2021/05/03 11:13:55;;;;;;;5.88;2.85;;;24.10;67.60;;;;;;4155972;28;20699;-62
2021/05/03 11:15:57;;;;;;;4.43;2.38;;;24.20;67.50;;;;;;4160549;28;20475;-63
2021/05/03 11:18:22;;;;;;;4.78;2.72;;;24.20;67.40;;;;;;4147850;28;20045;-62
2021/05/03 11:20:24;;;;;;;3.70;2.40;;;24.10;67.30;;;;;;4156698;28;20076;-64
2021/05/03 11:23:11;;;;;;;5.43;2.47;;;24.10;67.30;;;;;;4163610;28;20120;-65
2021/05/03 11:25:19;;;;;;;2.92;2.22;;;24.10;67.40;;;;;;4166316;28;20120;-66
2021/05/03 11:27:55;;;;;;;5.28;2.55;;;24.10;67.30;;;;;;4161893;28;20041;-67
2021/05/03 11:30:08;;;;;;;4.90;2.00;;;24.10;67.30;;;;;;4163399;28;20056;-62
2021/05/03 11:32:12;;;;;;;3.40;2.20;;;24.10;67.40;;;;;;4162364;28;20041;-63
2021/05/03 11:34:24;;;;;;;4.45;1.65;;;24.10;67.40;;;;;;4159268;28;20132;-65
2021/05/03 11:36:36;;;;;;;3.65;2.15;;;24.10;67.40;;;;;;4163411;28;20059;-63
2021/05/03 11:38:57;;;;;;;5.95;2.15;;;24.00;67.40;;;;;;4158352;28;20052;-63
2021/05/03 11:41:21;;;;;;;2.95;2.00;;;24.10;67.50;;;;;;4163856;28;20088;-66